createdAt,value
2023-02-25T00:00:27.056Z,98768.55
2023-02-25T00:01:32.554Z,98764.65
2023-02-25T00:02:38.809Z,98760.95
2023-02-25T00:03:42.991Z,98759.20
2023-02-25T00:04:46.597Z,98765.30
2023-02-25T00:05:51.052Z,98756.86
2023-02-25T00:06:57.454Z,98754.69
2023-02-25T00:08:00.778Z,98752.03
2023-02-25T00:09:06.064Z,98756.67
2023-02-25T00:10:14.893Z,98758.45
2023-02-25T00:11:19.133Z,98752.67
2023-02-25T00:12:22.108Z,98757.28
2023-02-25T00:13:26.858Z,98749.50
2023-02-25T00:14:30.403Z,98751.47
2023-02-25T00:15:34.191Z,98752.77
2023-02-25T00:16:38.448Z,98748.27
2023-02-25T00:17:44.025Z,98751.50
2023-02-25T00:18:48.744Z,98744.63
2023-02-25T00:19:52.074Z,98754.91
2023-02-25T00:20:57.870Z,98735.58
2023-02-25T00:22:01.305Z,98738.53
2023-02-25T00:23:04.992Z,98739.08
2023-02-25T00:24:16.527Z,98740.73
2023-02-25T00:25:14.374Z,98734.18
2023-02-25T00:26:18.430Z,98736.23
2023-02-25T00:27:22.895Z,98743.11
2023-02-25T00:28:25.765Z,98741.19
2023-02-25T00:29:29.156Z,98740.87
2023-02-25T00:30:34.679Z,98734.67
2023-02-25T00:31:39.098Z,98735.64
2023-02-25T00:32:43.148Z,98731.42
2023-02-25T00:33:48.911Z,98739.20
2023-02-25T00:34:51.802Z,98741.70
2023-02-25T00:35:55.086Z,98734.77
2023-02-25T00:36:58.700Z,98734.70
2023-02-25T00:38:15.374Z,98738.56
2023-02-25T00:39:08.557Z,98738.36
2023-02-25T00:40:15.919Z,98738.79
2023-02-25T00:41:19.832Z,98741.19
2023-02-25T00:42:24.796Z,98746.90
2023-02-25T00:43:31.181Z,98740.48
2023-02-25T00:44:34.736Z,98738.17
2023-02-25T00:45:39.794Z,98736.06
2023-02-25T00:46:44.043Z,98736.91
2023-02-25T00:47:47.452Z,98727.00
2023-02-25T00:48:50.974Z,98737.20
2023-02-25T00:49:55.175Z,98733.44
2023-02-25T00:50:58.060Z,98728.50
2023-02-25T00:52:02.190Z,98716.94
2023-02-25T00:53:05.910Z,98728.59
2023-02-25T00:54:08.991Z,98723.04
2023-02-25T00:55:12.425Z,98717.48
2023-02-25T00:56:18.994Z,98719.04
2023-02-25T00:57:23.058Z,98711.16
2023-02-25T00:58:27.182Z,98715.91
2023-02-25T00:59:30.070Z,98722.21
2023-02-25T01:00:50.003Z,98720.41
2023-02-25T01:01:43.380Z,98717.23
2023-02-25T01:02:47.229Z,98711.88
2023-02-25T01:03:53.050Z,98714.73
2023-02-25T01:04:56.889Z,98709.71
2023-02-25T01:06:01.496Z,98706.98
2023-02-25T01:07:04.886Z,98705.70
2023-02-25T01:08:09.064Z,98708.42
2023-02-25T01:09:15.319Z,98709.70
2023-02-25T01:10:21.843Z,98702.22
2023-02-25T01:11:29.790Z,98713.18
2023-02-25T01:12:35.521Z,98701.71
2023-02-25T01:13:40.247Z,98706.44
2023-02-25T01:14:45.458Z,98710.45
2023-02-25T01:15:49.214Z,98711.80
2023-02-25T01:16:53.615Z,98705.09
2023-02-25T01:17:57.117Z,98706.55
2023-02-25T01:19:03.129Z,98702.42
2023-02-25T01:20:08.754Z,98710.75
2023-02-25T01:21:19.330Z,98702.86
2023-02-25T01:22:24.005Z,98691.61
2023-02-25T01:23:26.696Z,98697.80
2023-02-25T01:24:31.201Z,98695.72
2023-02-25T01:25:35.766Z,98696.86
2023-02-25T01:26:41.269Z,98690.56
2023-02-25T01:27:47.533Z,98688.86
2023-02-25T01:28:52.543Z,98683.17
2023-02-25T01:29:57.401Z,98684.65
2023-02-25T01:31:00.765Z,98686.53
2023-02-25T01:32:17.210Z,98681.82
2023-02-25T01:33:21.594Z,98683.61
2023-02-25T01:34:24.257Z,98678.25
2023-02-25T01:35:26.934Z,98676.32
2023-02-25T01:36:31.590Z,98678.89
2023-02-25T01:37:34.959Z,98680.68
2023-02-25T01:38:39.109Z,98671.30
2023-02-25T01:39:42.439Z,98665.31
2023-02-25T01:40:45.820Z,98672.89
2023-02-25T01:41:52.875Z,98676.47
2023-02-25T01:42:56.275Z,98672.25
2023-02-25T01:44:03.539Z,98667.44
2023-02-25T01:45:19.832Z,98672.15
2023-02-25T01:46:25.891Z,98667.73
2023-02-25T01:47:34.100Z,98659.75
2023-02-25T01:48:38.241Z,98656.88
2023-02-25T01:49:43.405Z,98663.72
2023-02-25T01:50:49.823Z,98661.63
2023-02-25T01:51:55.128Z,98664.36
2023-02-25T01:53:02.590Z,98663.32
2023-02-25T01:54:09.758Z,98657.42
2023-02-25T01:55:15.570Z,98657.63
2023-02-25T01:56:22.863Z,98659.41
2023-02-25T01:57:26.338Z,98659.61
2023-02-25T01:58:30.469Z,98664.77
2023-02-25T01:59:36.688Z,98658.36
2023-02-25T02:00:40.440Z,98647.84
2023-02-25T02:01:43.877Z,98657.92
2023-02-25T02:02:55.443Z,98651.02
2023-02-25T02:04:04.218Z,98656.13
2023-02-25T02:05:08.186Z,98653.31
2023-02-25T02:06:15.998Z,98652.16
2023-02-25T02:07:21.505Z,98653.11
2023-02-25T02:08:27.796Z,98643.97
2023-02-25T02:09:32.251Z,98648.69
2023-02-25T02:10:38.064Z,98647.00
2023-02-25T02:11:41.565Z,98649.94
2023-02-25T02:12:46.855Z,98648.69
2023-02-25T02:13:55.782Z,98645.52
2023-02-25T02:15:01.190Z,98647.44
2023-02-25T02:16:06.603Z,98645.66
2023-02-25T02:17:17.191Z,98648.39
2023-02-25T02:18:21.805Z,98636.83
2023-02-25T02:19:27.515Z,98632.17
2023-02-25T02:20:32.100Z,98621.56
2023-02-25T02:21:48.339Z,98633.86
2023-02-25T02:22:54.449Z,98637.33
2023-02-25T02:23:59.081Z,98632.92
2023-02-25T02:25:06.665Z,98632.81
2023-02-25T02:26:12.032Z,98623.55
2023-02-25T02:27:17.323Z,98629.65
2023-02-25T02:28:37.959Z,98631.23
2023-02-25T02:29:45.744Z,98629.75
2023-02-25T02:31:06.658Z,98625.23
2023-02-25T02:32:28.627Z,98625.33
2023-02-25T02:33:34.099Z,98627.56
2023-02-25T02:34:39.561Z,98625.03
2023-02-25T02:35:53.501Z,98632.51
2023-02-25T02:37:00.774Z,98633.14
2023-02-25T02:38:04.817Z,98640.19
2023-02-25T02:39:11.335Z,98639.95
2023-02-25T02:40:16.618Z,98651.22
2023-02-25T02:41:37.881Z,98637.55
2023-02-25T02:42:48.903Z,98637.42
2023-02-25T02:44:15.476Z,98640.80
2023-02-25T02:45:21.067Z,98637.02
2023-02-25T02:46:28.897Z,98626.09
2023-02-25T02:47:36.808Z,98622.06
2023-02-25T02:48:42.039Z,98623.75
2023-02-25T02:49:46.477Z,98625.12
2023-02-25T02:50:54.692Z,98629.64
2023-02-25T02:51:58.813Z,98625.33
2023-02-25T02:53:05.077Z,98620.50
2023-02-25T02:54:12.082Z,98621.44
2023-02-25T02:55:20.931Z,98615.33
2023-02-25T02:56:29.361Z,98610.52
2023-02-25T02:57:37.993Z,98606.59
2023-02-25T02:58:45.864Z,98599.99
2023-02-25T02:59:51.150Z,98608.73
2023-02-25T03:00:57.700Z,98598.72
2023-02-25T03:02:05.975Z,98614.19
2023-02-25T03:03:12.714Z,98607.67
2023-02-25T03:04:17.804Z,98602.41
2023-02-25T03:05:21.480Z,98596.60
2023-02-25T03:06:26.056Z,98603.96
2023-02-25T03:07:31.656Z,98604.20
2023-02-25T03:08:42.384Z,98601.69
2023-02-25T03:09:51.313Z,98591.17
2023-02-25T03:10:54.592Z,98602.00
2023-02-25T03:11:57.882Z,98602.73
2023-02-25T03:13:01.504Z,98600.30
2023-02-25T03:14:08.567Z,98592.10
2023-02-25T03:15:13.317Z,98591.67
2023-02-25T03:16:19.435Z,98591.05
2023-02-25T03:17:26.700Z,98593.34
2023-02-25T03:18:39.401Z,98587.66
2023-02-25T03:19:49.486Z,98588.52
2023-02-25T03:20:55.518Z,98589.47
2023-02-25T03:22:00.556Z,98576.42
2023-02-25T03:23:05.639Z,98573.69
2023-02-25T03:24:13.871Z,98573.13
2023-02-25T03:25:30.660Z,98566.72
2023-02-25T03:26:35.575Z,98576.11
2023-02-25T03:27:42.951Z,98571.59
2023-02-25T03:28:46.388Z,98567.16
2023-02-25T03:29:49.859Z,98566.53
2023-02-25T03:30:54.159Z,98562.72
2023-02-25T03:31:59.446Z,98570.11
2023-02-25T03:33:05.077Z,98570.95
2023-02-25T03:34:17.881Z,98564.33
2023-02-25T03:35:22.844Z,98570.50
2023-02-25T03:36:28.742Z,98559.67
2023-02-25T03:37:36.008Z,98566.75
2023-02-25T03:38:46.424Z,98557.70
2023-02-25T03:39:51.684Z,98565.98
2023-02-25T03:40:57.639Z,98564.19
2023-02-25T03:42:05.111Z,98558.61
2023-02-25T03:43:10.255Z,98563.66
2023-02-25T03:44:14.376Z,98563.98
2023-02-25T03:45:17.257Z,98555.66
2023-02-25T03:46:22.081Z,98564.50
2023-02-25T03:47:28.756Z,98562.96
2023-02-25T03:48:33.317Z,98563.34
2023-02-25T03:49:38.549Z,98563.24
2023-02-25T03:50:48.344Z,98561.77
2023-02-25T03:51:54.855Z,98552.52
2023-02-25T03:52:58.712Z,98557.70
2023-02-25T03:54:08.881Z,98556.02
2023-02-25T03:55:15.029Z,98550.41
2023-02-25T03:56:19.825Z,98554.13
2023-02-25T03:57:26.964Z,98555.88
2023-02-25T03:58:33.573Z,98551.45
2023-02-25T03:59:36.980Z,98557.14
2023-02-25T04:00:41.845Z,98548.83
2023-02-25T04:01:48.777Z,98546.94
2023-02-25T04:02:52.117Z,98550.72
2023-02-25T04:03:55.909Z,98544.62
2023-02-25T04:04:59.973Z,98540.58
2023-02-25T04:06:02.708Z,98538.52
2023-02-25T04:07:07.048Z,98540.72
2023-02-25T04:08:12.005Z,98545.08
2023-02-25T04:09:15.419Z,98550.30
2023-02-25T04:10:21.951Z,98547.98
2023-02-25T04:11:24.520Z,98545.15
2023-02-25T04:12:29.585Z,98551.98
2023-02-25T04:13:33.093Z,98537.81
2023-02-25T04:14:36.376Z,98539.81
2023-02-25T04:15:40.153Z,98544.23
2023-02-25T04:16:42.552Z,98540.23
2023-02-25T04:17:45.993Z,98541.56
2023-02-25T04:18:49.286Z,98545.78
2023-02-25T04:19:53.180Z,98543.14
2023-02-25T04:20:58.583Z,98543.81
2023-02-25T04:22:02.284Z,98541.28
2023-02-25T04:23:05.568Z,98540.09
2023-02-25T04:24:09.107Z,98537.71
2023-02-25T04:25:12.898Z,98539.57
2023-02-25T04:26:16.125Z,98537.15
2023-02-25T04:27:18.971Z,98542.87
2023-02-25T04:28:22.085Z,98538.45
2023-02-25T04:29:25.996Z,98542.97
2023-02-25T04:30:33.375Z,98537.61
2023-02-25T04:31:35.857Z,98540.23
2023-02-25T04:32:39.445Z,98543.36
2023-02-25T04:33:44.038Z,98539.57
2023-02-25T04:34:47.782Z,98531.25
2023-02-25T04:35:53.553Z,98531.04
2023-02-25T04:36:56.996Z,98532.58
2023-02-25T04:38:00.100Z,98533.31
2023-02-25T04:39:05.261Z,98528.83
2023-02-25T04:40:13.239Z,98530.52
2023-02-25T04:41:15.606Z,98527.99
2023-02-25T04:42:19.831Z,98518.00
2023-02-25T04:43:23.025Z,98530.84
2023-02-25T04:44:27.584Z,98532.13
2023-02-25T04:45:29.776Z,98525.36
2023-02-25T04:46:35.955Z,98524.09
2023-02-25T04:47:38.619Z,98528.16
2023-02-25T04:48:42.132Z,98516.37
2023-02-25T04:49:48.484Z,98517.94
2023-02-25T04:50:52.165Z,98512.89
2023-02-25T04:51:56.612Z,98513.33
2023-02-25T04:52:59.685Z,98518.27
2023-02-25T04:54:05.788Z,98515.78
2023-02-25T04:55:12.503Z,98504.84
2023-02-25T04:56:19.125Z,98520.16
2023-02-25T04:57:25.843Z,98525.20
2023-02-25T04:58:29.121Z,98516.37
2023-02-25T04:59:34.201Z,98523.69
2023-02-25T05:00:39.157Z,98516.58
2023-02-25T05:01:43.049Z,98514.63
2023-02-25T05:02:48.477Z,98514.06
2023-02-25T05:03:53.913Z,98508.88
2023-02-25T05:04:57.194Z,98510.37
2023-02-25T05:06:00.234Z,98513.73
2023-02-25T05:07:02.796Z,98505.27
2023-02-25T05:08:06.343Z,98504.20
2023-02-25T05:09:10.498Z,98512.78
2023-02-25T05:10:14.591Z,98513.63
2023-02-25T05:11:18.606Z,98515.11
2023-02-25T05:12:22.949Z,98509.69
2023-02-25T05:13:26.450Z,98508.11
2023-02-25T05:14:28.944Z,98515.78
2023-02-25T05:15:36.911Z,98503.89
2023-02-25T05:16:43.623Z,98502.80
2023-02-25T05:17:49.652Z,98506.58
2023-02-25T05:18:52.533Z,98510.59
2023-02-25T05:19:56.971Z,98498.75
2023-02-25T05:21:03.210Z,98511.47
2023-02-25T05:22:06.817Z,98501.58
2023-02-25T05:23:11.146Z,98501.27
2023-02-25T05:24:17.457Z,98492.59
2023-02-25T05:25:21.086Z,98497.48
2023-02-25T05:26:24.789Z,98495.86
2023-02-25T05:27:28.521Z,98486.53
2023-02-25T05:28:37.754Z,98486.33
2023-02-25T05:29:41.539Z,98489.05
2023-02-25T05:30:44.903Z,98491.30
2023-02-25T05:31:48.823Z,98494.91
2023-02-25T05:32:51.289Z,98493.09
2023-02-25T05:33:54.598Z,98492.38
2023-02-25T05:34:58.594Z,98485.17
2023-02-25T05:36:01.993Z,98481.07
2023-02-25T05:37:06.126Z,98474.95
2023-02-25T05:38:09.419Z,98473.64
2023-02-25T05:39:15.534Z,98481.48
2023-02-25T05:40:18.629Z,98471.63
2023-02-25T05:41:23.398Z,98467.48
2023-02-25T05:42:26.529Z,98470.91
2023-02-25T05:43:30.183Z,98472.15
2023-02-25T05:44:36.282Z,98485.63
2023-02-25T05:45:39.801Z,98492.25
2023-02-25T05:46:42.112Z,98492.80
2023-02-25T05:47:47.439Z,98497.27
2023-02-25T05:48:50.561Z,98497.80
2023-02-25T05:49:52.888Z,98497.94
2023-02-25T05:51:03.862Z,98504.31
2023-02-25T05:52:07.619Z,98501.06
2023-02-25T05:53:13.352Z,98500.95
2023-02-25T05:54:16.603Z,98495.38
2023-02-25T05:55:20.007Z,98494.47
2023-02-25T05:56:32.175Z,98498.73
2023-02-25T05:57:38.283Z,98496.84
2023-02-25T05:58:42.074Z,98496.53
2023-02-25T05:59:45.307Z,98497.16
2023-02-25T06:00:49.364Z,98504.21
2023-02-25T06:01:51.789Z,98503.16
2023-02-25T06:02:56.568Z,98510.31
2023-02-25T06:04:00.276Z,98509.16
2023-02-25T06:05:03.871Z,98511.89
2023-02-25T06:06:08.244Z,98513.78
2023-02-25T06:07:12.459Z,98504.21
2023-02-25T06:08:16.696Z,98504.84
2023-02-25T06:09:20.827Z,98504.84
2023-02-25T06:10:24.956Z,98503.83
2023-02-25T06:11:29.611Z,98499.73
2023-02-25T06:12:33.870Z,98495.75
2023-02-25T06:13:39.991Z,98501.12
2023-02-25T06:14:45.985Z,98494.26
2023-02-25T06:15:49.266Z,98489.55
2023-02-25T06:16:55.604Z,98500.08
2023-02-25T06:17:59.001Z,98493.36
2023-02-25T06:19:03.146Z,98492.30
2023-02-25T06:20:09.453Z,98483.48
2023-02-25T06:21:15.925Z,98479.58
2023-02-25T06:22:22.210Z,98485.50
2023-02-25T06:23:27.396Z,98478.73
2023-02-25T06:24:30.939Z,98481.28
2023-02-25T06:25:34.762Z,98480.95
2023-02-25T06:26:39.356Z,98479.09
2023-02-25T06:27:45.894Z,98482.39
2023-02-25T06:28:48.564Z,98471.78
2023-02-25T06:29:52.902Z,98466.33
2023-02-25T06:31:01.163Z,98471.73
2023-02-25T06:32:05.389Z,98469.37
2023-02-25T06:33:09.076Z,98463.73
2023-02-25T06:34:13.523Z,98468.87
2023-02-25T06:35:16.802Z,98455.81
2023-02-25T06:36:22.281Z,98457.83
2023-02-25T06:37:25.804Z,98459.27
2023-02-25T06:38:29.604Z,98452.30
2023-02-25T06:39:34.777Z,98450.86
2023-02-25T06:40:38.713Z,98448.25
2023-02-25T06:41:41.937Z,98435.36
2023-02-25T06:42:45.295Z,98429.98
2023-02-25T06:43:52.348Z,98433.56
2023-02-25T06:44:55.890Z,98420.89
2023-02-25T06:45:59.348Z,98427.91
2023-02-25T06:47:02.553Z,98420.75
2023-02-25T06:48:05.788Z,98417.27
2023-02-25T06:49:14.295Z,98411.16
2023-02-25T06:50:17.992Z,98412.07
2023-02-25T06:51:20.771Z,98411.95
2023-02-25T06:52:24.792Z,98409.43
2023-02-25T06:53:29.758Z,98411.11
2023-02-25T06:54:34.048Z,98410.70
2023-02-25T06:55:39.158Z,98406.42
2023-02-25T06:56:43.197Z,98396.37
2023-02-25T06:57:46.381Z,98405.72
2023-02-25T06:58:50.004Z,98398.30
2023-02-25T06:59:56.417Z,98399.84
2023-02-25T07:01:05.946Z,98396.97
2023-02-25T07:02:13.670Z,98398.06
2023-02-25T07:03:17.920Z,98390.14
2023-02-25T07:04:21.577Z,98382.95
2023-02-25T07:05:24.951Z,98379.35
2023-02-25T07:06:27.264Z,98374.89
2023-02-25T07:07:30.776Z,98375.73
2023-02-25T07:08:34.001Z,98374.41
2023-02-25T07:09:37.430Z,98380.85
2023-02-25T07:10:43.491Z,98379.89
2023-02-25T07:11:46.561Z,98378.89
2023-02-25T07:12:49.726Z,98382.03
2023-02-25T07:13:52.214Z,98388.01
2023-02-25T07:14:55.724Z,98394.13
2023-02-25T07:15:59.086Z,98396.44
2023-02-25T07:17:03.691Z,98401.59
2023-02-25T07:18:06.288Z,98396.92
2023-02-25T07:19:09.533Z,98398.95
2023-02-25T07:20:13.673Z,98394.28
2023-02-25T07:21:16.653Z,98395.87
2023-02-25T07:22:19.899Z,98396.92
2023-02-25T07:23:22.718Z,98386.88
2023-02-25T07:24:31.914Z,98395.27
2023-02-25T07:25:35.263Z,98393.47
2023-02-25T07:26:39.112Z,98384.98
2023-02-25T07:27:44.406Z,98381.48
2023-02-25T07:28:51.424Z,98385.94
2023-02-25T07:29:55.974Z,98390.20
2023-02-25T07:31:02.132Z,98390.11
2023-02-25T07:32:06.552Z,98387.20
2023-02-25T07:33:09.896Z,98376.25
2023-02-25T07:34:13.312Z,98382.00
2023-02-25T07:35:16.794Z,98372.36
2023-02-25T07:36:19.746Z,98384.57
2023-02-25T07:37:23.022Z,98377.13
2023-02-25T07:38:26.737Z,98375.33
2023-02-25T07:39:29.121Z,98368.45
2023-02-25T07:40:33.123Z,98369.13
2023-02-25T07:41:37.040Z,98370.25
2023-02-25T07:42:42.034Z,98370.81
2023-02-25T07:43:48.138Z,98373.87
2023-02-25T07:44:52.672Z,98374.02
2023-02-25T07:45:59.303Z,98367.84
2023-02-25T07:47:02.917Z,98365.20
2023-02-25T07:48:06.739Z,98373.12
2023-02-25T07:49:11.603Z,98367.84
2023-02-25T07:50:14.062Z,98370.91
2023-02-25T07:51:18.307Z,98363.66
2023-02-25T07:52:23.282Z,98356.95
2023-02-25T07:53:26.776Z,98357.31
2023-02-25T07:54:30.266Z,98350.89
2023-02-25T07:55:36.385Z,98351.81
2023-02-25T07:56:41.882Z,98354.20
2023-02-25T07:57:48.308Z,98352.08
2023-02-25T07:58:51.815Z,98355.72
2023-02-25T07:59:55.323Z,98362.16
2023-02-25T08:00:59.046Z,98347.77
2023-02-25T08:02:02.856Z,98342.61
2023-02-25T08:03:06.074Z,98348.39
2023-02-25T08:04:13.605Z,98335.52
2023-02-25T08:05:20.367Z,98344.28
2023-02-25T08:06:23.654Z,98349.10
2023-02-25T08:07:27.887Z,98346.45
2023-02-25T08:08:32.919Z,98355.30
2023-02-25T08:09:35.537Z,98358.36
2023-02-25T08:10:38.937Z,98358.62
2023-02-25T08:11:43.487Z,98354.70
2023-02-25T08:12:47.779Z,98355.22
2023-02-25T08:13:50.043Z,98344.99
2023-02-25T08:14:54.957Z,98351.95
2023-02-25T08:15:58.378Z,98343.28
2023-02-25T08:17:02.462Z,98341.56
2023-02-25T08:18:05.970Z,98343.60
2023-02-25T08:19:08.353Z,98340.25
2023-02-25T08:20:13.622Z,98352.11
2023-02-25T08:21:26.010Z,98347.47
2023-02-25T08:22:30.573Z,98338.46
2023-02-25T08:23:34.058Z,98339.71
2023-02-25T08:24:37.414Z,98345.88
2023-02-25T08:25:42.592Z,98341.73
2023-02-25T08:26:46.031Z,98333.74
2023-02-25T08:27:50.585Z,98328.81
2023-02-25T08:28:56.895Z,98342.51
2023-02-25T08:30:00.197Z,98340.70
2023-02-25T08:31:04.388Z,98342.98
2023-02-25T08:32:09.064Z,98340.09
2023-02-25T08:33:12.604Z,98335.30
2023-02-25T08:34:15.882Z,98338.87
2023-02-25T08:35:19.053Z,98341.94
2023-02-25T08:36:24.617Z,98340.92
2023-02-25T08:37:28.224Z,98329.73
2023-02-25T08:38:33.776Z,98332.63
2023-02-25T08:39:36.963Z,98326.23
2023-02-25T08:40:43.286Z,98325.20
2023-02-25T08:41:49.869Z,98318.05
2023-02-25T08:42:53.145Z,98321.79
2023-02-25T08:43:59.216Z,98324.07
2023-02-25T08:45:03.542Z,98324.58
2023-02-25T08:46:09.178Z,98329.52
2023-02-25T08:47:12.281Z,98326.67
2023-02-25T08:48:15.662Z,98325.40
2023-02-25T08:49:18.933Z,98327.55
2023-02-25T08:50:23.296Z,98327.66
2023-02-25T08:51:39.229Z,98332.23
2023-02-25T08:52:42.341Z,98331.10
2023-02-25T08:53:44.778Z,98323.17
2023-02-25T08:54:49.225Z,98317.95
2023-02-25T08:55:55.168Z,98312.34
2023-02-25T08:57:00.931Z,98317.14
2023-02-25T08:58:04.541Z,98310.80
2023-02-25T08:59:07.908Z,98314.44
2023-02-25T09:00:14.695Z,98316.59
2023-02-25T09:01:18.505Z,98314.66
2023-02-25T09:02:22.112Z,98314.57
2023-02-25T09:03:27.200Z,98313.92
2023-02-25T09:04:30.696Z,98309.86
2023-02-25T09:05:33.777Z,98313.05
2023-02-25T09:06:36.446Z,98304.89
2023-02-25T09:07:40.007Z,98295.02
2023-02-25T09:08:44.456Z,98287.84
2023-02-25T09:09:46.748Z,98295.89
2023-02-25T09:10:51.071Z,98293.24
2023-02-25T09:11:55.434Z,98295.52
2023-02-25T09:12:58.098Z,98280.56
2023-02-25T09:14:01.502Z,98283.12
2023-02-25T09:15:05.424Z,98284.58
2023-02-25T09:16:08.124Z,98276.39
2023-02-25T09:17:11.805Z,98272.36
2023-02-25T09:18:16.016Z,98266.08
2023-02-25T09:19:19.861Z,98256.16
2023-02-25T09:20:23.839Z,98260.55
2023-02-25T09:21:27.909Z,98253.26
2023-02-25T09:22:33.197Z,98257.09
2023-02-25T09:23:36.391Z,98257.02
2023-02-25T09:24:38.516Z,98249.70
2023-02-25T09:25:42.889Z,98259.27
2023-02-25T09:26:46.500Z,98259.62
2023-02-25T09:27:49.990Z,98247.05
2023-02-25T09:28:53.175Z,98254.80
2023-02-25T09:29:56.989Z,98250.81
2023-02-25T09:31:00.413Z,98246.11
2023-02-25T09:32:10.011Z,98250.89
2023-02-25T09:33:13.827Z,98246.11
2023-02-25T09:34:17.090Z,98239.91
2023-02-25T09:35:20.485Z,98237.07
2023-02-25T09:36:24.402Z,98242.91
2023-02-25T09:37:26.710Z,98232.59
2023-02-25T09:38:29.635Z,98231.31
2023-02-25T09:39:32.932Z,98225.45
2023-02-25T09:40:36.649Z,98219.88
2023-02-25T09:41:56.986Z,98224.56
2023-02-25T09:43:02.238Z,98215.00
2023-02-25T09:44:13.591Z,98204.86
2023-02-25T09:45:19.803Z,98204.36
2023-02-25T09:46:24.991Z,98211.97
2023-02-25T09:47:30.092Z,98209.74
2023-02-25T09:48:34.185Z,98202.27
2023-02-25T09:49:41.457Z,98196.28
2023-02-25T09:50:46.836Z,98191.64
2023-02-25T09:51:52.427Z,98189.52
2023-02-25T09:53:07.364Z,98182.49
2023-02-25T09:54:25.031Z,98190.59
2023-02-25T09:55:36.706Z,98178.57
2023-02-25T09:56:39.922Z,98181.63
2023-02-25T09:57:45.370Z,98177.27
2023-02-25T09:58:51.504Z,98179.58
2023-02-25T09:59:56.236Z,98177.08
2023-02-25T10:01:13.535Z,98170.25
2023-02-25T10:02:21.072Z,98161.27
2023-02-25T10:03:29.614Z,98159.28
2023-02-25T10:04:35.742Z,98158.86
2023-02-25T10:05:47.717Z,98162.84
2023-02-25T10:06:52.251Z,98153.48
2023-02-25T10:07:57.183Z,98144.27
2023-02-25T10:09:08.465Z,98138.65
2023-02-25T10:10:13.156Z,98131.78
2023-02-25T10:11:21.768Z,98133.80
2023-02-25T10:12:39.772Z,98131.29
2023-02-25T10:13:47.865Z,98119.26
2023-02-25T10:15:05.999Z,98116.66
2023-02-25T10:16:30.835Z,98120.67
2023-02-25T10:17:55.728Z,98121.73
2023-02-25T10:19:01.099Z,98119.58
2023-02-25T10:20:11.567Z,98107.73
2023-02-25T10:21:17.821Z,98108.54
2023-02-25T10:22:28.890Z,98111.34
2023-02-25T10:23:53.549Z,98113.95
2023-02-25T10:24:59.464Z,98118.63
2023-02-25T10:26:13.841Z,98113.57
2023-02-25T10:27:21.315Z,98113.03
2023-02-25T10:28:25.036Z,98115.64
2023-02-25T10:29:29.357Z,98122.06
2023-02-25T10:30:36.853Z,98119.53
2023-02-25T10:31:44.446Z,98112.25
2023-02-25T10:32:49.648Z,98102.66
2023-02-25T10:33:54.882Z,98094.13
2023-02-25T10:34:59.973Z,98090.48
2023-02-25T10:36:10.988Z,98094.23
2023-02-25T10:37:17.921Z,98095.75
2023-02-25T10:38:23.625Z,98102.45
2023-02-25T10:39:29.555Z,98097.23
2023-02-25T10:40:33.247Z,98106.48
2023-02-25T10:41:36.960Z,98104.45
2023-02-25T10:42:40.348Z,98102.42
2023-02-25T10:43:46.399Z,98095.73
2023-02-25T10:44:52.574Z,98093.81
2023-02-25T10:45:57.772Z,98098.78
2023-02-25T10:47:05.739Z,98090.07
2023-02-25T10:48:18.099Z,98088.09
2023-02-25T10:49:26.353Z,98080.50
2023-02-25T10:50:44.535Z,98072.41
2023-02-25T10:51:36.079Z,98075.38
2023-02-25T10:52:54.193Z,98079.14
2023-02-25T10:53:59.279Z,98084.23
2023-02-25T10:55:02.781Z,98063.84
2023-02-25T10:56:06.809Z,98063.84
2023-02-25T10:57:12.520Z,98069.94
2023-02-25T10:58:22.935Z,98064.58
2023-02-25T10:59:40.128Z,98060.49
2023-02-25T11:00:46.198Z,98054.38
2023-02-25T11:01:50.517Z,98052.06
2023-02-25T11:02:55.482Z,98045.26
2023-02-25T11:04:01.968Z,98040.64
2023-02-25T11:05:06.526Z,98042.05
2023-02-25T11:06:12.196Z,98037.30
2023-02-25T11:07:34.325Z,98029.00
2023-02-25T11:08:39.589Z,98026.51
2023-02-25T11:09:42.660Z,98019.52
2023-02-25T11:10:49.602Z,98023.66
2023-02-25T11:12:00.641Z,98024.64
2023-02-25T11:13:06.759Z,98021.98
2023-02-25T11:14:12.964Z,98018.38
2023-02-25T11:15:44.795Z,98022.98
2023-02-25T11:16:41.878Z,98022.82
2023-02-25T11:17:44.901Z,98006.07
2023-02-25T11:18:50.908Z,98013.02
2023-02-25T11:19:57.786Z,98020.99
2023-02-25T11:21:09.535Z,98019.01
2023-02-25T11:22:20.982Z,98018.02
2023-02-25T11:23:28.240Z,98031.25
2023-02-25T11:24:36.787Z,98031.79
2023-02-25T11:25:45.250Z,98019.80
2023-02-25T11:26:50.757Z,98013.48
2023-02-25T11:27:58.939Z,98007.55
2023-02-25T11:29:06.290Z,98003.97
2023-02-25T11:30:11.922Z,97999.43
2023-02-25T11:31:18.853Z,98003.20
2023-02-25T11:32:24.328Z,97990.39
2023-02-25T11:33:31.523Z,97989.16
2023-02-25T11:34:38.164Z,97998.27
2023-02-25T11:35:42.624Z,97993.66
2023-02-25T11:36:46.375Z,97995.09
2023-02-25T11:37:51.600Z,97986.87
2023-02-25T11:39:17.871Z,97983.07
2023-02-25T11:40:27.151Z,97980.62
2023-02-25T11:41:31.681Z,97979.25
2023-02-25T11:42:34.990Z,97973.78
2023-02-25T11:43:42.817Z,97971.27
2023-02-25T11:44:46.933Z,97978.26
2023-02-25T11:45:51.122Z,97964.38
2023-02-25T11:46:56.774Z,97958.59
2023-02-25T11:48:00.534Z,97951.25
2023-02-25T11:49:08.739Z,97959.73
2023-02-25T11:50:24.571Z,97953.80
2023-02-25T11:51:32.068Z,97950.20
2023-02-25T11:52:42.124Z,97953.48
2023-02-25T11:53:49.430Z,97955.63
2023-02-25T11:55:10.902Z,97950.79
2023-02-25T11:56:26.179Z,97935.32
2023-02-25T11:57:38.246Z,97938.64
2023-02-25T11:58:48.533Z,97946.30
2023-02-25T11:59:56.954Z,97939.85
2023-02-25T12:01:06.409Z,97953.80
2023-02-25T12:02:29.451Z,97953.81
2023-02-25T12:03:34.735Z,97952.53
2023-02-25T12:04:57.760Z,97960.34
2023-02-25T12:06:10.283Z,97954.22
2023-02-25T12:07:30.768Z,97955.86
2023-02-25T12:08:41.802Z,97961.34
2023-02-25T12:09:47.189Z,97964.51
2023-02-25T12:10:52.320Z,97965.66
2023-02-25T12:11:57.611Z,97958.52
2023-02-25T12:13:02.498Z,97959.16
2023-02-25T12:14:19.478Z,97958.05
2023-02-25T12:15:37.201Z,97943.73
2023-02-25T12:16:48.744Z,97954.55
2023-02-25T12:18:07.389Z,97958.97
2023-02-25T12:19:28.986Z,97948.38
2023-02-25T12:20:35.427Z,97953.33
2023-02-25T12:21:58.870Z,97947.89
2023-02-25T12:23:03.729Z,97952.21
2023-02-25T12:24:24.782Z,97949.47
2023-02-25T12:25:40.333Z,97952.45
2023-02-25T12:26:48.067Z,97941.92
2023-02-25T12:28:14.361Z,97944.88
2023-02-25T12:29:21.634Z,97948.30
2023-02-25T12:30:42.181Z,97937.73
2023-02-25T12:31:50.343Z,97940.91
2023-02-25T12:33:03.871Z,97948.95
2023-02-25T12:34:09.265Z,97945.27
2023-02-25T12:35:32.489Z,97942.98
2023-02-25T12:36:53.669Z,97943.60
2023-02-25T12:38:16.936Z,97937.53
2023-02-25T12:39:25.327Z,97933.19
2023-02-25T12:40:30.213Z,97942.66
2023-02-25T12:41:36.412Z,97931.55
2023-02-25T12:42:55.684Z,97936.98
2023-02-25T12:44:18.725Z,97945.84
2023-02-25T12:45:24.319Z,97936.14
2023-02-25T12:46:29.068Z,97941.77
2023-02-25T12:47:34.154Z,97933.05
2023-02-25T12:48:53.634Z,97938.02
2023-02-25T12:49:59.023Z,97946.97
2023-02-25T12:51:05.973Z,97938.79
2023-02-25T12:52:17.765Z,97936.82
2023-02-25T12:53:39.826Z,97931.21
2023-02-25T12:56:19.528Z,97930.45
2023-02-25T12:57:30.038Z,97931.23
2023-02-25T12:58:39.209Z,97927.70